Time;durP1;ratioP1;P1;durP2;ratioP2;P2;SDS_P1;SDS_P2;PMS_P1;PMS_P2;Temp;Humidity;BMP_temperature;BMP_pressure;BME280_temperature;BME280_humidity;BME280_pressure;Samples;Min_cycle;Max_cycle;Signal;HPM_P1;HPM_P2
2023/03/08 00:01:38;;;;;;;1.30;0.70;;;;;;;;;;5067044;28;20206;-60
2023/03/08 00:04:05;;;;;;;1.80;0.70;;;;;;;;;;5065103;28;20210;-60
2023/03/08 00:06:32;;;;;;;0.80;0.60;;;;;;;;;;5070711;28;20215;-61
2023/03/08 00:09:00;;;;;;;0.33;0.33;;;;;;;;;;5065318;28;20696;-60
2023/03/08 00:11:27;;;;;;;0.20;0.20;;;;;;;;;;5064377;28;20642;-60
2023/03/08 00:13:54;;;;;;;0.40;0.40;;;;;;;;;;5063818;28;20313;-60
2023/03/08 00:16:23;;;;;;;0.20;0.20;;;;;;;;;;5074125;28;20233;-60
2023/03/08 00:18:50;;;;;;;0.83;0.50;;;;;;;;;;5067814;28;20627;-60
2023/03/08 00:21:18;;;;;;;0.43;0.33;;;;;;;;;;5068639;28;20214;-60
2023/03/08 00:23:45;;;;;;;0.43;0.43;;;;;;;;;;5073177;28;20218;-60
2023/03/08 00:26:13;;;;;;;0.80;0.50;;;;;;;;;;5065641;28;20664;-60
2023/03/08 00:28:40;;;;;;;0.40;0.30;;;;;;;;;;5068144;28;20225;-61
2023/03/08 00:31:08;;;;;;;0.13;0.13;;;;;;;;;;5065100;28;20257;-60
2023/03/08 00:33:37;;;;;;;0.40;0.40;;;;;;;;;;5068297;28;20661;-60
2023/03/08 00:36:05;;;;;;;0.23;0.23;;;;;;;;;;5067989;28;20205;-61
2023/03/08 00:38:33;;;;;;;0.30;0.30;;;;;;;;;;5061291;28;20229;-60
2023/03/08 00:41:00;;;;;;;1.03;0.43;;;;;;;;;;5069514;28;20213;-60
2023/03/08 00:43:27;;;;;;;0.40;0.40;;;;;;;;;;5076094;28;20211;-61
2023/03/08 00:45:54;;;;;;;0.90;0.20;;;;;;;;;;5070354;28;20212;-60
2023/03/08 00:48:22;;;;;;;0.20;0.20;;;;;;;;;;5075362;28;20229;-60
2023/03/08 00:50:50;;;;;;;0.30;0.30;;;;;;;;;;5066734;28;20271;-60
2023/03/08 00:53:17;;;;;;;0.50;0.20;;;;;;;;;;5072729;28;20200;-60
2023/03/08 00:55:48;;;;;;;0.70;0.30;;;;;;;;;;5066801;28;20284;-60
2023/03/08 00:58:16;;;;;;;0.63;0.40;;;;;;;;;;5069405;28;20588;-60
2023/03/08 01:00:43;;;;;;;0.30;0.30;;;;;;;;;;5069907;28;20207;-60
2023/03/08 01:03:10;;;;;;;0.30;0.30;;;;;;;;;;5075957;28;20203;-60
2023/03/08 01:05:39;;;;;;;0.73;0.37;;;;;;;;;;5071818;28;20235;-60
2023/03/08 01:08:08;;;;;;;0.40;0.40;;;;;;;;;;5067406;28;20212;-60
2023/03/08 01:10:35;;;;;;;0.20;0.20;;;;;;;;;;5070060;28;20198;-60
2023/03/08 01:13:02;;;;;;;0.40;0.40;;;;;;;;;;5068857;28;20210;-60
2023/03/08 01:15:29;;;;;;;0.70;0.70;;;;;;;;;;5071518;28;20211;-60
2023/03/08 01:17:56;;;;;;;0.80;0.47;;;;;;;;;;5076826;28;20279;-60
2023/03/08 01:20:23;;;;;;;0.53;0.30;;;;;;;;;;5077801;28;20580;-60
2023/03/08 01:22:50;;;;;;;0.40;0.40;;;;;;;;;;5071257;28;20234;-60
2023/03/08 01:25:18;;;;;;;0.30;0.30;;;;;;;;;;5069980;28;20216;-59
2023/03/08 01:27:46;;;;;;;0.30;0.30;;;;;;;;;;5085073;28;20195;-59
2023/03/08 01:30:13;;;;;;;0.47;0.47;;;;;;;;;;5079680;28;20705;-59
2023/03/08 01:32:40;;;;;;;0.70;0.53;;;;;;;;;;5084745;28;20205;-59
2023/03/08 01:35:07;;;;;;;0.10;0.10;;;;;;;;;;5071407;28;20218;-59
2023/03/08 01:37:34;;;;;;;0.30;0.30;;;;;;;;;;5079175;28;20995;-60
2023/03/08 01:40:03;;;;;;;0.30;0.30;;;;;;;;;;5072880;28;20214;-60
2023/03/08 01:42:32;;;;;;;0.97;0.57;;;;;;;;;;5082477;28;20208;-59
2023/03/08 01:45:00;;;;;;;0.57;0.57;;;;;;;;;;5070673;28;20206;-60
2023/03/08 01:47:28;;;;;;;0.57;0.57;;;;;;;;;;5086878;28;20279;-60
2023/03/08 01:49:56;;;;;;;0.50;0.50;;;;;;;;;;5080005;28;20232;-60
2023/03/08 01:52:27;;;;;;;0.50;0.50;;;;;;;;;;5079061;28;20584;-60
2023/03/08 01:54:55;;;;;;;0.50;0.50;;;;;;;;;;5081049;28;20200;-59
2023/03/08 01:57:23;;;;;;;0.87;0.47;;;;;;;;;;5087101;28;20272;-60
2023/03/08 01:59:53;;;;;;;0.50;0.50;;;;;;;;;;5073282;28;20207;-60
2023/03/08 02:02:22;;;;;;;0.40;0.40;;;;;;;;;;5074623;28;20586;-59
2023/03/08 02:04:49;;;;;;;0.47;0.47;;;;;;;;;;5067500;28;20269;-60
2023/03/08 02:07:16;;;;;;;0.73;0.73;;;;;;;;;;5070471;28;20214;-60
2023/03/08 02:09:44;;;;;;;0.40;0.40;;;;;;;;;;5076393;28;20222;-60
2023/03/08 02:12:12;;;;;;;0.43;0.30;;;;;;;;;;5076362;28;20474;-60
2023/03/08 02:14:40;;;;;;;0.50;0.50;;;;;;;;;;5080199;28;20196;-60
2023/03/08 02:17:08;;;;;;;0.50;0.50;;;;;;;;;;5073072;28;20284;-60
2023/03/08 02:19:42;;;;;;;0.60;0.60;;;;;;;;;;5069285;28;20199;-60
2023/03/08 02:22:10;;;;;;;0.53;0.53;;;;;;;;;;5065658;28;20227;-60
2023/03/08 02:24:38;;;;;;;0.57;0.47;;;;;;;;;;5078734;28;20293;-60
2023/03/08 02:27:07;;;;;;;0.60;0.60;;;;;;;;;;5081685;28;20215;-60
2023/03/08 02:29:34;;;;;;;0.50;0.50;;;;;;;;;;5084475;28;20222;-60
2023/03/08 02:32:01;;;;;;;0.57;0.57;;;;;;;;;;5076172;28;20207;-60
2023/03/08 02:34:28;;;;;;;1.20;1.10;;;;;;;;;;5069897;28;20210;-61
2023/03/08 02:36:55;;;;;;;0.60;0.60;;;;;;;;;;5064236;28;20264;-60
2023/03/08 02:39:22;;;;;;;0.90;0.80;;;;;;;;;;5071554;28;20215;-60
2023/03/08 02:41:50;;;;;;;0.77;0.60;;;;;;;;;;5083765;28;20202;-60
2023/03/08 02:44:18;;;;;;;0.70;0.70;;;;;;;;;;5076996;28;20211;-60
2023/03/08 02:46:45;;;;;;;0.70;0.70;;;;;;;;;;5071900;28;20203;-60
2023/03/08 02:49:12;;;;;;;0.60;0.60;;;;;;;;;;5073138;28;20226;-60
2023/03/08 02:51:39;;;;;;;1.00;0.93;;;;;;;;;;5076605;28;20251;-60
2023/03/08 02:54:06;;;;;;;1.03;0.50;;;;;;;;;;5085228;28;20221;-60
2023/03/08 02:56:33;;;;;;;0.60;0.60;;;;;;;;;;5068429;28;20310;-60
2023/03/08 02:59:01;;;;;;;1.00;0.70;;;;;;;;;;5068696;28;20203;-60
2023/03/08 03:01:28;;;;;;;1.63;0.93;;;;;;;;;;5054223;28;20216;-60
2023/03/08 03:03:55;;;;;;;0.90;0.83;;;;;;;;;;5076536;28;20211;-60
2023/03/08 03:06:22;;;;;;;1.03;0.80;;;;;;;;;;5064167;28;20202;-59
2023/03/08 03:08:49;;;;;;;0.73;0.73;;;;;;;;;;5067561;28;20207;-60
2023/03/08 03:11:17;;;;;;;0.60;0.60;;;;;;;;;;5072388;28;20271;-59
2023/03/08 03:13:44;;;;;;;0.83;0.83;;;;;;;;;;5088330;28;20289;-60
2023/03/08 03:16:13;;;;;;;0.43;0.43;;;;;;;;;;5078465;28;20211;-59
2023/03/08 03:18:41;;;;;;;2.00;1.03;;;;;;;;;;5084986;28;20232;-60
2023/03/08 03:21:09;;;;;;;0.60;0.60;;;;;;;;;;5069415;28;20227;-60
2023/03/08 03:23:36;;;;;;;0.90;0.90;;;;;;;;;;5074281;28;20727;-59
2023/03/08 03:26:05;;;;;;;1.73;0.90;;;;;;;;;;5075481;28;20719;-60
2023/03/08 03:28:32;;;;;;;0.80;0.80;;;;;;;;;;5069854;28;20269;-59
2023/03/08 03:30:59;;;;;;;0.60;0.60;;;;;;;;;;5067570;28;20569;-60
2023/03/08 03:33:27;;;;;;;0.47;0.47;;;;;;;;;;5069634;28;20210;-60
2023/03/08 03:35:54;;;;;;;1.10;0.93;;;;;;;;;;5085578;28;20210;-60
2023/03/08 03:38:21;;;;;;;0.97;0.70;;;;;;;;;;5084817;28;20238;-60
2023/03/08 03:40:48;;;;;;;1.37;1.00;;;;;;;;;;5089177;28;20304;-59
2023/03/08 03:43:15;;;;;;;3.57;1.13;;;;;;;;;;5085425;28;20199;-59
2023/03/08 03:45:42;;;;;;;1.97;1.87;;;;;;;;;;5084556;28;20686;-60
2023/03/08 03:48:09;;;;;;;2.43;2.10;;;;;;;;;;5074930;28;20208;-60
2023/03/08 03:50:38;;;;;;;3.40;2.40;;;;;;;;;;5076665;28;20757;-60
2023/03/08 03:53:05;;;;;;;3.63;2.40;;;;;;;;;;5087780;28;20267;-60
2023/03/08 03:55:32;;;;;;;4.70;3.10;;;;;;;;;;5084356;28;20277;-60
2023/03/08 03:57:59;;;;;;;5.77;4.00;;;;;;;;;;5081948;28;20298;-59
2023/03/08 04:00:26;;;;;;;3.80;3.10;;;;;;;;;;5076979;28;20276;-59
2023/03/08 04:02:53;;;;;;;5.27;2.63;;;;;;;;;;5070098;28;20211;-60
2023/03/08 04:05:20;;;;;;;6.60;3.53;;;;;;;;;;5076095;28;20266;-60
2023/03/08 04:07:48;;;;;;;3.47;3.17;;;;;;;;;;5083766;28;20866;-60
2023/03/08 04:10:15;;;;;;;4.47;3.23;;;;;;;;;;5086497;28;20307;-60
2023/03/08 04:12:42;;;;;;;3.67;3.20;;;;;;;;;;5081608;28;20277;-60
2023/03/08 04:15:09;;;;;;;8.67;3.33;;;;;;;;;;5083124;28;20205;-60
2023/03/08 04:17:36;;;;;;;5.23;3.07;;;;;;;;;;5086526;28;20212;-60
2023/03/08 04:20:05;;;;;;;4.13;2.50;;;;;;;;;;5079365;28;20206;-60
2023/03/08 04:22:32;;;;;;;4.30;2.53;;;;;;;;;;5068063;28;20225;-60
2023/03/08 04:25:00;;;;;;;5.33;3.10;;;;;;;;;;5073057;28;20643;-59
2023/03/08 04:27:27;;;;;;;3.77;3.03;;;;;;;;;;5080014;28;20310;-59
2023/03/08 04:29:54;;;;;;;3.00;2.60;;;;;;;;;;5081909;28;20288;-60
2023/03/08 04:32:21;;;;;;;5.13;3.07;;;;;;;;;;5085782;28;20254;-60
2023/03/08 04:34:48;;;;;;;5.50;3.03;;;;;;;;;;5072573;28;20215;-60
2023/03/08 04:37:15;;;;;;;7.07;3.90;;;;;;;;;;5068531;28;20799;-60
2023/03/08 04:39:42;;;;;;;4.00;3.00;;;;;;;;;;5068609;28;20205;-60
2023/03/08 04:42:11;;;;;;;3.83;2.97;;;;;;;;;;5079045;28;20267;-60
2023/03/08 04:44:38;;;;;;;5.07;2.87;;;;;;;;;;5078981;28;20864;-60
2023/03/08 04:47:05;;;;;;;7.63;3.80;;;;;;;;;;5068720;28;20203;-60
2023/03/08 04:49:32;;;;;;;3.90;3.10;;;;;;;;;;5077381;28;20230;-60
2023/03/08 04:51:59;;;;;;;5.00;3.20;;;;;;;;;;5067414;28;20203;-60
2023/03/08 04:54:26;;;;;;;4.13;3.37;;;;;;;;;;5073533;28;20220;-61
2023/03/08 04:56:53;;;;;;;6.93;3.70;;;;;;;;;;5058532;28;20293;-60
2023/03/08 04:59:22;;;;;;;6.93;3.63;;;;;;;;;;5077502;28;20208;-60
2023/03/08 05:01:49;;;;;;;3.13;2.60;;;;;;;;;;5078827;28;20214;-60
2023/03/08 05:04:16;;;;;;;3.07;2.77;;;;;;;;;;5077847;28;20205;-60
2023/03/08 05:06:43;;;;;;;4.93;3.33;;;;;;;;;;5067517;28;20286;-61
2023/03/08 05:09:10;;;;;;;5.60;3.00;;;;;;;;;;5076142;28;20588;-60
2023/03/08 05:11:37;;;;;;;4.47;2.90;;;;;;;;;;5077361;28;20226;-60
2023/03/08 05:14:04;;;;;;;5.23;3.83;;;;;;;;;;5082083;28;20210;-61
2023/03/08 05:16:32;;;;;;;4.40;2.83;;;;;;;;;;5080084;28;20249;-60
2023/03/08 05:18:59;;;;;;;2.87;2.40;;;;;;;;;;5085496;28;20207;-60
2023/03/08 05:21:26;;;;;;;3.93;3.30;;;;;;;;;;5069691;28;20682;-60
2023/03/08 05:23:53;;;;;;;4.20;2.97;;;;;;;;;;5071345;28;20210;-60
2023/03/08 05:26:20;;;;;;;5.83;2.63;;;;;;;;;;5068063;28;20295;-60
2023/03/08 05:28:47;;;;;;;5.47;3.40;;;;;;;;;;5072233;28;20263;-58
2023/03/08 05:31:15;;;;;;;3.63;3.10;;;;;;;;;;5082349;28;20287;-60
2023/03/08 05:33:45;;;;;;;6.33;3.47;;;;;;;;;;5074008;28;20318;-60
2023/03/08 05:36:12;;;;;;;5.53;3.20;;;;;;;;;;5061149;28;20311;-60
2023/03/08 05:38:40;;;;;;;4.27;3.20;;;;;;;;;;5082274;28;20247;-60
2023/03/08 05:41:09;;;;;;;3.67;3.10;;;;;;;;;;5066954;28;20279;-61
2023/03/08 05:43:36;;;;;;;7.77;3.50;;;;;;;;;;5074555;28;20221;-60
2023/03/08 05:46:04;;;;;;;3.30;2.60;;;;;;;;;;5087045;28;20260;-62
2023/03/08 05:48:35;;;;;;;8.07;2.80;;;;;;;;;;5070248;28;20204;-60
2023/03/08 05:51:06;;;;;;;9.17;3.10;;;;;;;;;;5064604;28;20363;-60
2023/03/08 05:53:34;;;;;;;5.73;3.50;;;;;;;;;;5062864;28;20211;-59
2023/03/08 05:56:09;;;;;;;2.53;2.43;;;;;;;;;;5081829;28;20209;-59
2023/03/08 05:58:36;;;;;;;5.33;3.50;;;;;;;;;;5061125;28;20202;-60
2023/03/08 06:01:08;;;;;;;4.20;2.60;;;;;;;;;;5075358;28;20209;-60
2023/03/08 06:03:35;;;;;;;3.33;3.03;;;;;;;;;;5073042;28;20236;-60
2023/03/08 06:06:03;;;;;;;8.33;3.37;;;;;;;;;;5066767;28;20205;-60
2023/03/08 06:08:31;;;;;;;4.27;2.63;;;;;;;;;;5083068;28;20236;-60
2023/03/08 06:10:58;;;;;;;3.80;3.17;;;;;;;;;;5077025;28;20229;-60
2023/03/08 06:13:25;;;;;;;3.63;2.80;;;;;;;;;;5050978;28;20327;-60
2023/03/08 06:15:54;;;;;;;4.97;2.97;;;;;;;;;;5079587;28;20214;-60
2023/03/08 06:18:21;;;;;;;4.03;2.90;;;;;;;;;;5080234;28;20210;-60
2023/03/08 06:20:56;;;;;;;4.23;2.40;;;;;;;;;;5076387;28;20205;-60
2023/03/08 06:23:23;;;;;;;6.63;3.40;;;;;;;;;;5086378;28;20210;-60
2023/03/08 06:25:51;;;;;;;4.87;2.97;;;;;;;;;;5070260;28;20210;-59
2023/03/08 06:28:18;;;;;;;3.37;2.70;;;;;;;;;;5078470;28;20325;-60
2023/03/08 06:30:45;;;;;;;1.47;1.43;;;;;;;;;;5072357;28;20264;-59
2023/03/08 06:33:12;;;;;;;5.47;2.67;;;;;;;;;;5071165;28;20249;-60
2023/03/08 06:35:39;;;;;;;7.70;3.13;;;;;;;;;;5058785;28;20707;-60
2023/03/08 06:38:06;;;;;;;4.90;3.03;;;;;;;;;;5082203;28;20238;-60
2023/03/08 06:40:33;;;;;;;5.17;3.00;;;;;;;;;;5071368;28;20208;-60
2023/03/08 06:43:01;;;;;;;3.57;2.50;;;;;;;;;;5063818;28;20242;-60
2023/03/08 06:45:28;;;;;;;3.63;2.90;;;;;;;;;;5070091;28;20207;-60
2023/03/08 06:47:55;;;;;;;3.73;2.60;;;;;;;;;;5077892;28;20213;-60
2023/03/08 06:50:22;;;;;;;3.13;2.83;;;;;;;;;;5078411;28;20244;-59
2023/03/08 06:52:49;;;;;;;3.97;2.47;;;;;;;;;;5068599;28;20742;-59
2023/03/08 06:55:17;;;;;;;3.33;2.50;;;;;;;;;;5070577;28;20264;-60
2023/03/08 06:57:45;;;;;;;4.67;3.30;;;;;;;;;;5070287;28;20208;-60
2023/03/08 07:00:15;;;;;;;7.67;3.33;;;;;;;;;;5069833;28;20206;-60
2023/03/08 07:02:42;;;;;;;3.80;3.13;;;;;;;;;;5069143;28;20603;-60
2023/03/08 07:05:09;;;;;;;4.67;2.93;;;;;;;;;;5070656;28;20279;-59
2023/03/08 07:07:38;;;;;;;7.00;3.40;;;;;;;;;;5069714;28;20218;-60
2023/03/08 07:10:05;;;;;;;8.83;4.00;;;;;;;;;;5087956;28;20203;-60
2023/03/08 07:12:35;;;;;;;3.03;2.83;;;;;;;;;;5089253;28;20216;-59
2023/03/08 07:15:02;;;;;;;4.93;3.23;;;;;;;;;;5087694;28;20202;-60
2023/03/08 07:17:33;;;;;;;4.40;3.33;;;;;;;;;;5080380;28;20206;-60
2023/03/08 07:20:00;;;;;;;4.87;2.90;;;;;;;;;;5070502;28;20568;-59
2023/03/08 07:22:27;;;;;;;7.93;3.40;;;;;;;;;;5066988;28;20717;-59
2023/03/08 07:24:54;;;;;;;2.70;2.40;;;;;;;;;;5072382;28;20208;-59
2023/03/08 07:27:21;;;;;;;7.73;3.20;;;;;;;;;;5078763;28;20220;-59
2023/03/08 07:29:48;;;;;;;3.90;2.40;;;;;;;;;;5069962;28;20211;-60
2023/03/08 07:32:15;;;;;;;1.53;1.53;;;;;;;;;;5069812;28;20242;-59
2023/03/08 07:34:44;;;;;;;4.37;3.03;;;;;;;;;;5068699;28;20630;-59
2023/03/08 07:37:12;;;;;;;5.90;3.73;;;;;;;;;;5077815;28;20227;-59
2023/03/08 07:39:39;;;;;;;7.47;3.33;;;;;;;;;;5086188;28;20671;-59
2023/03/08 07:42:06;;;;;;;2.30;2.10;;;;;;;;;;5086733;28;20207;-61
2023/03/08 07:44:33;;;;;;;2.23;1.97;;;;;;;;;;5079434;28;21058;-60
2023/03/08 07:47:00;;;;;;;3.23;2.93;;;;;;;;;;5069781;28;20199;-60
2023/03/08 07:49:27;;;;;;;6.93;3.97;;;;;;;;;;5068427;28;20690;-60
2023/03/08 07:51:55;;;;;;;2.80;2.60;;;;;;;;;;5087472;28;20226;-60
2023/03/08 07:54:22;;;;;;;1.43;1.33;;;;;;;;;;5074392;28;20230;-59
2023/03/08 07:56:49;;;;;;;5.13;3.27;;;;;;;;;;5068073;28;20212;-60
2023/03/08 07:59:16;;;;;;;7.27;3.83;;;;;;;;;;5080890;28;20237;-60
2023/03/08 08:01:43;;;;;;;4.53;2.63;;;;;;;;;;5088253;28;20252;-59
2023/03/08 08:04:11;;;;;;;7.80;4.80;;;;;;;;;;5072626;28;20273;-61
2023/03/08 08:06:39;;;;;;;9.07;4.03;;;;;;;;;;5068138;28;20215;-59
2023/03/08 08:09:07;;;;;;;25.37;12.03;;;;;;;;;;5074393;28;20214;-59
2023/03/08 08:11:34;;;;;;;8.87;5.40;;;;;;;;;;5073328;28;20231;-60
2023/03/08 08:14:01;;;;;;;9.63;5.50;;;;;;;;;;5067484;28;20326;-60
2023/03/08 08:16:28;;;;;;;6.40;4.60;;;;;;;;;;5066411;28;20207;-60
2023/03/08 08:18:55;;;;;;;5.37;4.37;;;;;;;;;;5067757;28;20223;-60
2023/03/08 08:21:22;;;;;;;5.57;3.13;;;;;;;;;;5067605;28;20231;-59
2023/03/08 08:23:49;;;;;;;6.90;3.97;;;;;;;;;;5063135;28;20216;-61
2023/03/08 08:26:19;;;;;;;3.73;2.80;;;;;;;;;;5060823;28;20208;-60
2023/03/08 08:28:47;;;;;;;4.07;2.77;;;;;;;;;;5057926;28;20214;-63
2023/03/08 08:31:15;;;;;;;8.90;4.13;;;;;;;;;;5063352;28;20288;-59
2023/03/08 08:33:42;;;;;;;2.53;1.83;;;;;;;;;;5049727;28;20239;-60
2023/03/08 08:36:09;;;;;;;4.37;2.63;;;;;;;;;;5061126;28;20211;-59
2023/03/08 08:38:36;;;;;;;7.37;3.37;;;;;;;;;;5059506;28;20243;-58
2023/03/08 08:41:05;;;;;;;3.77;2.50;;;;;;;;;;5048214;28;20210;-58
2023/03/08 08:43:34;;;;;;;4.67;3.27;;;;;;;;;;5087573;28;20212;-59
2023/03/08 08:46:01;;;;;;;4.37;2.33;;;;;;;;;;5068107;28;20209;-60
2023/03/08 08:48:31;;;;;;;1.30;1.20;;;;;;;;;;5068021;28;20208;-61
2023/03/08 08:50:59;;;;;;;5.10;2.90;;;;;;;;;;5062170;28;20292;-59
2023/03/08 08:53:26;;;;;;;2.83;2.53;;;;;;;;;;5059478;28;20242;-59
2023/03/08 08:55:53;;;;;;;7.03;3.50;;;;;;;;;;5062214;28;20489;-58
2023/03/08 08:58:20;;;;;;;5.33;3.83;;;;;;;;;;5061048;28;20264;-59
2023/03/08 09:00:48;;;;;;;8.50;2.87;;;;;;;;;;5065869;28;20211;-59
2023/03/08 09:03:15;;;;;;;4.43;3.37;;;;;;;;;;5073346;28;20207;-60
2023/03/08 09:05:43;;;;;;;9.10;3.50;;;;;;;;;;5056265;28;20222;-60
2023/03/08 09:08:11;;;;;;;4.90;3.20;;;;;;;;;;5063255;28;20724;-59
2023/03/08 09:10:39;;;;;;;8.57;4.13;;;;;;;;;;5068397;28;20209;-59
2023/03/08 09:13:07;;;;;;;7.77;3.67;;;;;;;;;;5059927;28;20204;-59
2023/03/08 09:15:35;;;;;;;4.07;2.33;;;;;;;;;;5055913;28;20637;-59
2023/03/08 09:18:04;;;;;;;7.40;4.50;;;;;;;;;;5067231;28;20242;-58
2023/03/08 09:20:31;;;;;;;6.53;4.03;;;;;;;;;;5066714;28;20215;-71
2023/03/08 09:22:58;;;;;;;4.63;3.57;;;;;;;;;;5064943;28;20984;-60
2023/03/08 09:25:25;;;;;;;4.67;3.93;;;;;;;;;;5067153;28;20223;-60
2023/03/08 09:27:52;;;;;;;2.80;2.53;;;;;;;;;;5067162;28;20230;-67
2023/03/08 09:30:19;;;;;;;4.60;3.53;;;;;;;;;;5066518;28;20305;-59
2023/03/08 09:32:47;;;;;;;6.63;3.40;;;;;;;;;;5067049;28;20227;-59
2023/03/08 09:35:15;;;;;;;9.40;3.97;;;;;;;;;;5066712;28;20317;-60
2023/03/08 09:37:43;;;;;;;24.73;7.90;;;;;;;;;;5066441;28;20249;-59
2023/03/08 09:40:18;;;;;;;8.23;4.80;;;;;;;;;;5066269;28;20745;-59
2023/03/08 09:42:45;;;;;;;9.50;5.73;;;;;;;;;;5066794;28;20210;-59
2023/03/08 09:45:18;;;;;;;8.97;4.73;;;;;;;;;;5066708;28;20215;-59
2023/03/08 09:47:47;;;;;;;9.20;4.83;;;;;;;;;;5065014;28;20391;-59
2023/03/08 09:50:21;;;;;;;7.30;4.83;;;;;;;;;;5066490;28;20214;-59
2023/03/08 09:52:50;;;;;;;5.00;3.93;;;;;;;;;;5066253;28;20226;-59
2023/03/08 09:55:24;;;;;;;6.97;5.03;;;;;;;;;;5064885;28;20666;-59
2023/03/08 09:57:53;;;;;;;8.47;4.80;;;;;;;;;;5065599;28;20261;-59
2023/03/08 10:00:21;;;;;;;8.00;5.17;;;;;;;;;;5063936;28;20301;-59
2023/03/08 10:02:51;;;;;;;8.80;5.77;;;;;;;;;;5069948;28;20518;-59
2023/03/08 10:05:23;;;;;;;9.77;5.43;;;;;;;;;;5072397;28;20214;-61
2023/03/08 10:07:56;;;;;;;7.97;4.73;;;;;;;;;;5065146;28;20232;-61
2023/03/08 10:10:27;;;;;;;8.30;4.70;;;;;;;;;;5070590;28;20689;-60
2023/03/08 10:12:59;;;;;;;7.43;4.43;;;;;;;;;;5068887;28;20252;-58
2023/03/08 10:15:27;;;;;;;8.40;4.93;;;;;;;;;;5050726;28;20215;-59
2023/03/08 10:17:55;;;;;;;4.67;3.73;;;;;;;;;;5046179;28;20205;-59
2023/03/08 10:20:25;;;;;;;6.77;4.30;;;;;;;;;;5054805;28;20212;-59
2023/03/08 10:22:56;;;;;;;3.03;2.67;;;;;;;;;;5046111;28;20224;-59
2023/03/08 10:25:25;;;;;;;4.20;3.43;;;;;;;;;;5045953;28;20199;-59
2023/03/08 10:27:54;;;;;;;6.20;4.03;;;;;;;;;;5046006;28;20349;-59
2023/03/08 10:30:22;;;;;;;4.50;3.80;;;;;;;;;;5048733;28;20220;-59
2023/03/08 10:32:50;;;;;;;7.17;4.10;;;;;;;;;;5065767;28;20459;-61
2023/03/08 10:35:18;;;;;;;8.33;3.97;;;;;;;;;;5067975;28;20207;-59
2023/03/08 10:37:52;;;;;;;6.23;4.17;;;;;;;;;;5065863;28;20243;-59
2023/03/08 10:40:21;;;;;;;7.57;4.63;;;;;;;;;;5067445;28;20195;-59
2023/03/08 10:42:53;;;;;;;5.60;4.00;;;;;;;;;;5065906;28;20218;-60
2023/03/08 10:45:21;;;;;;;5.37;4.37;;;;;;;;;;5066998;28;20211;-59
2023/03/08 10:47:54;;;;;;;5.97;3.30;;;;;;;;;;5065810;28;20839;-59
2023/03/08 10:50:22;;;;;;;6.27;3.80;;;;;;;;;;5066870;28;20257;-59
2023/03/08 10:52:51;;;;;;;8.37;3.73;;;;;;;;;;5065929;28;20223;-59
2023/03/08 10:55:20;;;;;;;6.47;4.10;;;;;;;;;;5081283;28;20206;-59
2023/03/08 10:57:50;;;;;;;7.13;3.63;;;;;;;;;;5084709;28;20198;-59
2023/03/08 11:00:32;;;;;;;5.70;4.17;;;;;;;;;;5088579;28;20206;-59
2023/03/08 11:03:03;;;;;;;5.83;4.03;;;;;;;;;;5076002;28;20198;-59
2023/03/08 11:05:30;;;;;;;4.77;3.40;;;;;;;;;;5051050;28;20284;-59
2023/03/08 11:07:58;;;;;;;3.97;3.60;;;;;;;;;;5068015;28;20584;-59
2023/03/08 11:10:27;;;;;;;6.30;3.90;;;;;;;;;;5069198;28;20207;-59
2023/03/08 11:13:01;;;;;;;3.37;3.07;;;;;;;;;;5069013;28;20238;-60
2023/03/08 11:15:30;;;;;;;5.57;4.33;;;;;;;;;;5069087;28;20580;-61
2023/03/08 11:17:58;;;;;;;9.70;3.47;;;;;;;;;;5066736;28;20215;-60
2023/03/08 11:20:28;;;;;;;4.37;3.97;;;;;;;;;;5081397;28;20203;-59
2023/03/08 11:23:01;;;;;;;4.77;3.77;;;;;;;;;;5070466;28;20227;-59
2023/03/08 11:25:39;;;;;;;5.17;3.90;;;;;;;;;;5072282;28;20207;-60
2023/03/08 11:28:12;;;;;;;9.30;4.57;;;;;;;;;;5070675;28;20210;-61
2023/03/08 11:30:43;;;;;;;8.03;3.97;;;;;;;;;;5075332;28;20215;-59
2023/03/08 11:33:20;;;;;;;5.70;3.77;;;;;;;;;;5067382;28;20861;-61
2023/03/08 11:35:51;;;;;;;6.63;3.93;;;;;;;;;;5078688;28;20729;-60
2023/03/08 11:38:20;;;;;;;5.37;3.33;;;;;;;;;;5078301;28;20274;-58
2023/03/08 11:40:53;;;;;;;4.60;3.87;;;;;;;;;;5070273;28;20208;-60
2023/03/08 11:43:29;;;;;;;12.10;6.10;;;;;;;;;;5087845;28;20214;-58
2023/03/08 11:45:59;;;;;;;5.80;3.83;;;;;;;;;;5086238;28;20214;-60
2023/03/08 11:48:32;;;;;;;5.77;3.83;;;;;;;;;;5069858;28;20242;-60
2023/03/08 11:51:01;;;;;;;3.33;3.03;;;;;;;;;;5061205;28;20537;-59
2023/03/08 11:53:32;;;;;;;8.83;4.13;;;;;;;;;;5064927;28;20710;-59
2023/03/08 11:56:10;;;;;;;7.57;5.20;;;;;;;;;;5058215;28;20580;-60
2023/03/08 11:58:39;;;;;;;8.23;4.67;;;;;;;;;;5070021;28;20214;-59
2023/03/08 12:01:10;;;;;;;11.70;5.67;;;;;;;;;;5071202;28;20205;-59
2023/03/08 12:03:39;;;;;;;5.87;4.47;;;;;;;;;;5060151;28;20265;-59
2023/03/08 12:06:10;;;;;;;3.93;3.63;;;;;;;;;;5065966;28;20725;-59
2023/03/08 12:08:40;;;;;;;5.03;3.47;;;;;;;;;;5062887;28;20207;-59
2023/03/08 12:11:10;;;;;;;10.57;6.43;;;;;;;;;;5068514;28;20207;-58
2023/03/08 12:13:39;;;;;;;8.90;5.50;;;;;;;;;;5067728;28;20224;-58
2023/03/08 12:16:10;;;;;;;7.60;5.30;;;;;;;;;;5066677;28;20376;-58
2023/03/08 12:18:40;;;;;;;9.37;5.43;;;;;;;;;;5068254;28;20215;-58
2023/03/08 12:21:14;;;;;;;6.70;4.80;;;;;;;;;;5067839;28;20234;-58
2023/03/08 12:23:45;;;;;;;7.40;4.60;;;;;;;;;;5068731;28;20624;-57
2023/03/08 12:26:16;;;;;;;4.40;4.10;;;;;;;;;;5066017;28;20208;-59
2023/03/08 12:28:46;;;;;;;30.33;12.70;;;;;;;;;;5066642;28;20214;-59
2023/03/08 12:31:24;;;;;;;11.00;6.60;;;;;;;;;;5079410;28;20246;-63
2023/03/08 12:33:51;;;;;;;11.83;5.30;;;;;;;;;;5066342;28;20234;-63
2023/03/08 12:36:21;;;;;;;9.87;5.30;;;;;;;;;;5065146;28;20218;-66
2023/03/08 12:38:54;;;;;;;6.33;5.63;;;;;;;;;;5068934;28;20249;-59
2023/03/08 12:41:24;;;;;;;5.57;4.40;;;;;;;;;;5065342;28;20300;-61
2023/03/08 12:43:59;;;;;;;12.23;6.07;;;;;;;;;;5069139;28;20583;-61
2023/03/08 12:46:26;;;;;;;12.97;4.93;;;;;;;;;;5068025;28;20297;-61
2023/03/08 12:48:53;;;;;;;9.80;4.30;;;;;;;;;;5064681;28;20214;-59
2023/03/08 12:51:25;;;;;;;5.70;5.00;;;;;;;;;;5068139;28;20275;-60
2023/03/08 12:54:00;;;;;;;9.60;5.53;;;;;;;;;;5075421;28;20276;-61
2023/03/08 12:56:30;;;;;;;7.70;5.30;;;;;;;;;;5066489;28;20230;-60
2023/03/08 12:58:58;;;;;;;10.47;5.00;;;;;;;;;;5068024;28;20215;-66
2023/03/08 13:01:46;;;;;;;8.03;4.80;;;;;;;;;;5062353;28;20313;-60
2023/03/08 13:04:28;;;;;;;6.00;4.60;;;;;;;;;;5061488;28;20279;-60
2023/03/08 13:07:16;;;;;;;7.23;5.07;;;;;;;;;;5065200;28;20267;-64
2023/03/08 13:09:50;;;;;;;9.03;6.00;;;;;;;;;;5059469;28;20207;-59
2023/03/08 13:12:22;;;;;;;7.90;4.17;;;;;;;;;;5065628;28;20269;-60
2023/03/08 13:14:59;;;;;;;12.07;5.70;;;;;;;;;;5071207;28;20616;-60
2023/03/08 13:17:34;;;;;;;6.27;4.77;;;;;;;;;;5069355;28;20642;-60
2023/03/08 13:20:05;;;;;;;7.53;5.73;;;;;;;;;;5078204;28;20206;-60
2023/03/08 13:22:35;;;;;;;5.53;4.47;;;;;;;;;;5076104;28;20264;-60
2023/03/08 13:25:06;;;;;;;8.20;5.50;;;;;;;;;;5082869;28;20638;-60
2023/03/08 13:27:38;;;;;;;9.03;5.50;;;;;;;;;;5080421;28;20203;-60
2023/03/08 13:30:17;;;;;;;10.40;5.50;;;;;;;;;;5072157;28;20267;-60
2023/03/08 13:32:44;;;;;;;8.77;6.27;;;;;;;;;;5063641;28;20229;-61
2023/03/08 13:35:14;;;;;;;8.53;5.40;;;;;;;;;;5081880;28;20696;-61
2023/03/08 13:37:41;;;;;;;9.03;5.53;;;;;;;;;;5060186;28;20242;-60
2023/03/08 13:40:16;;;;;;;7.93;6.10;;;;;;;;;;5065435;28;20229;-59
2023/03/08 13:42:54;;;;;;;7.23;5.10;;;;;;;;;;5067252;28;20666;-60
2023/03/08 13:45:22;;;;;;;6.30;5.13;;;;;;;;;;5068296;28;20249;-60
2023/03/08 13:47:49;;;;;;;8.07;5.53;;;;;;;;;;5071263;28;20741;-60
2023/03/08 13:50:20;;;;;;;11.23;5.67;;;;;;;;;;5075522;28;20203;-60
2023/03/08 13:52:48;;;;;;;11.63;7.37;;;;;;;;;;5068831;28;20222;-60
2023/03/08 13:55:19;;;;;;;7.53;5.50;;;;;;;;;;5067182;28;20202;-59
2023/03/08 13:57:48;;;;;;;7.17;4.43;;;;;;;;;;5069435;28;20736;-59
2023/03/08 14:00:28;;;;;;;6.63;4.73;;;;;;;;;;5082841;28;20228;-59
2023/03/08 14:02:56;;;;;;;7.73;5.23;;;;;;;;;;5066859;28;20211;-60
2023/03/08 14:05:24;;;;;;;15.80;6.63;;;;;;;;;;5068897;28;20203;-60
2023/03/08 14:07:59;;;;;;;8.93;5.50;;;;;;;;;;5079819;28;20668;-59
2023/03/08 14:10:28;;;;;;;7.13;5.43;;;;;;;;;;5083622;28;20209;-59
2023/03/08 14:12:55;;;;;;;12.37;6.47;;;;;;;;;;5068726;28;20235;-59
2023/03/08 14:15:22;;;;;;;7.73;5.40;;;;;;;;;;5075489;28;20237;-60
2023/03/08 14:17:51;;;;;;;4.97;4.40;;;;;;;;;;5067656;28;20210;-60
2023/03/08 14:20:20;;;;;;;8.53;6.10;;;;;;;;;;5066325;28;20233;-59
2023/03/08 14:22:47;;;;;;;6.50;4.93;;;;;;;;;;5073938;28;20753;-60
2023/03/08 14:25:22;;;;;;;11.27;5.80;;;;;;;;;;5045883;28;20300;-59
2023/03/08 14:27:49;;;;;;;7.97;5.30;;;;;;;;;;5067783;28;20569;-59
2023/03/08 14:30:17;;;;;;;8.30;5.20;;;;;;;;;;5064531;28;20726;-60
2023/03/08 14:32:56;;;;;;;6.47;5.47;;;;;;;;;;5067415;28;20238;-60
2023/03/08 14:35:25;;;;;;;7.67;5.40;;;;;;;;;;5089041;28;20202;-60
2023/03/08 14:37:54;;;;;;;12.80;5.43;;;;;;;;;;5070515;28;20243;-59
2023/03/08 14:40:24;;;;;;;6.87;5.63;;;;;;;;;;5070025;28;20475;-59
2023/03/08 14:42:52;;;;;;;12.03;6.90;;;;;;;;;;5071258;28;20211;-60
2023/03/08 14:45:21;;;;;;;6.83;5.07;;;;;;;;;;5069965;28;20695;-60
2023/03/08 14:47:50;;;;;;;9.00;5.60;;;;;;;;;;5076641;28;20213;-64
2023/03/08 14:50:23;;;;;;;8.10;5.63;;;;;;;;;;5086022;28;20203;-60
2023/03/08 14:52:51;;;;;;;8.63;6.00;;;;;;;;;;5070002;28;20622;-64